sensor_id;sensor_type;location;lat;lon;timestamp;temperature;humidity
4673;DHT22;61885;53.560;9.940;2023-07-02T00:02:08;15.40;92.10
4673;DHT22;61885;53.560;9.940;2023-07-02T00:04:37;15.50;92.00
4673;DHT22;61885;53.560;9.940;2023-07-02T00:07:07;15.40;92.90
4673;DHT22;61885;53.560;9.940;2023-07-02T00:09:36;15.30;92.80
4673;DHT22;61885;53.560;9.940;2023-07-02T00:12:07;15.40;93.00
4673;DHT22;61885;53.560;9.940;2023-07-02T00:14:37;15.30;93.20
4673;DHT22;61885;53.560;9.940;2023-07-02T00:17:09;15.30;93.40
4673;DHT22;61885;53.560;9.940;2023-07-02T00:19:40;15.30;93.40
4673;DHT22;61885;53.560;9.940;2023-07-02T00:22:13;15.30;93.50
4673;DHT22;61885;53.560;9.940;2023-07-02T00:24:43;15.20;93.60
4673;DHT22;61885;53.560;9.940;2023-07-02T00:27:12;15.20;93.50
4673;DHT22;61885;53.560;9.940;2023-07-02T00:29:42;15.20;93.70
4673;DHT22;61885;53.560;9.940;2023-07-02T00:32:14;15.30;93.60
4673;DHT22;61885;53.560;9.940;2023-07-02T00:34:44;15.20;93.50
4673;DHT22;61885;53.560;9.940;2023-07-02T00:37:13;15.20;93.50
4673;DHT22;61885;53.560;9.940;2023-07-02T00:39:43;15.30;93.30
4673;DHT22;61885;53.560;9.940;2023-07-02T00:42:14;15.30;93.40
4673;DHT22;61885;53.560;9.940;2023-07-02T00:44:43;15.40;93.30
4673;DHT22;61885;53.560;9.940;2023-07-02T00:47:16;15.30;93.30
4673;DHT22;61885;53.560;9.940;2023-07-02T00:49:45;15.30;93.10
4673;DHT22;61885;53.560;9.940;2023-07-02T00:52:15;15.30;93.20
4673;DHT22;61885;53.560;9.940;2023-07-02T00:54:47;15.40;92.40
4673;DHT22;61885;53.560;9.940;2023-07-02T00:57:16;15.40;92.60
4673;DHT22;61885;53.560;9.940;2023-07-02T00:59:46;15.40;93.20
4673;DHT22;61885;53.560;9.940;2023-07-02T01:02:21;15.40;92.70
4673;DHT22;61885;53.560;9.940;2023-07-02T01:04:52;15.40;92.50
4673;DHT22;61885;53.560;9.940;2023-07-02T01:07:25;15.40;92.50
4673;DHT22;61885;53.560;9.940;2023-07-02T01:09:54;15.40;92.60
4673;DHT22;61885;53.560;9.940;2023-07-02T01:12:27;15.40;92.40
4673;DHT22;61885;53.560;9.940;2023-07-02T01:15:00;15.40;92.50
4673;DHT22;61885;53.560;9.940;2023-07-02T01:17:34;15.50;92.40
4673;DHT22;61885;53.560;9.940;2023-07-02T01:20:12;15.40;92.40
4673;DHT22;61885;53.560;9.940;2023-07-02T01:22:43;15.40;92.40
4673;DHT22;61885;53.560;9.940;2023-07-02T01:25:15;15.40;92.40
4673;DHT22;61885;53.560;9.940;2023-07-02T01:27:47;15.40;92.80
4673;DHT22;61885;53.560;9.940;2023-07-02T01:30:16;15.40;92.80
4673;DHT22;61885;53.560;9.940;2023-07-02T01:32:46;15.40;92.40
4673;DHT22;61885;53.560;9.940;2023-07-02T01:35:18;15.40;92.20
4673;DHT22;61885;53.560;9.940;2023-07-02T01:37:48;15.40;92.50
4673;DHT22;61885;53.560;9.940;2023-07-02T01:40:18;15.40;92.20
4673;DHT22;61885;53.560;9.940;2023-07-02T01:42:48;15.40;92.30
4673;DHT22;61885;53.560;9.940;2023-07-02T01:45:18;15.50;92.00
4673;DHT22;61885;53.560;9.940;2023-07-02T01:47:48;15.40;92.50
4673;DHT22;61885;53.560;9.940;2023-07-02T01:50:20;15.50;91.90
4673;DHT22;61885;53.560;9.940;2023-07-02T01:52:50;15.50;92.10
4673;DHT22;61885;53.560;9.940;2023-07-02T01:55:19;15.40;92.80
4673;DHT22;61885;53.560;9.940;2023-07-02T01:57:48;15.40;92.60
4673;DHT22;61885;53.560;9.940;2023-07-02T02:00:19;15.40;92.70
4673;DHT22;61885;53.560;9.940;2023-07-02T02:02:48;15.40;92.80
4673;DHT22;61885;53.560;9.940;2023-07-02T02:05:20;15.40;92.90
4673;DHT22;61885;53.560;9.940;2023-07-02T02:07:50;15.30;92.60
4673;DHT22;61885;53.560;9.940;2023-07-02T02:10:19;15.30;92.80
4673;DHT22;61885;53.560;9.940;2023-07-02T02:12:49;15.30;92.80
4673;DHT22;61885;53.560;9.940;2023-07-02T02:15:18;15.30;92.80
4673;DHT22;61885;53.560;9.940;2023-07-02T02:17:48;15.30;93.00
4673;DHT22;61885;53.560;9.940;2023-07-02T02:20:20;15.30;92.90
4673;DHT22;61885;53.560;9.940;2023-07-02T02:22:51;15.30;93.00
4673;DHT22;61885;53.560;9.940;2023-07-02T02:25:20;15.30;93.20
4673;DHT22;61885;53.560;9.940;2023-07-02T02:27:50;15.20;93.00
4673;DHT22;61885;53.560;9.940;2023-07-02T02:30:19;15.20;93.20
4673;DHT22;61885;53.560;9.940;2023-07-02T02:32:50;15.10;93.10
4673;DHT22;61885;53.560;9.940;2023-07-02T02:35:22;15.20;93.30
4673;DHT22;61885;53.560;9.940;2023-07-02T02:37:51;15.20;93.10
4673;DHT22;61885;53.560;9.940;2023-07-02T02:40:21;15.20;93.30
4673;DHT22;61885;53.560;9.940;2023-07-02T02:42:50;15.20;93.20
4673;DHT22;61885;53.560;9.940;2023-07-02T02:45:20;15.10;93.10
4673;DHT22;61885;53.560;9.940;2023-07-02T02:47:49;15.10;93.30
4673;DHT22;61885;53.560;9.940;2023-07-02T02:50:21;15.10;93.20
4673;DHT22;61885;53.560;9.940;2023-07-02T02:52:51;15.10;93.30
4673;DHT22;61885;53.560;9.940;2023-07-02T02:55:20;15.10;93.40
4673;DHT22;61885;53.560;9.940;2023-07-02T02:57:50;14.90;93.60
4673;DHT22;61885;53.560;9.940;2023-07-02T03:00:23;14.90;93.50
4673;DHT22;61885;53.560;9.940;2023-07-02T03:02:53;15.00;93.70
4673;DHT22;61885;53.560;9.940;2023-07-02T03:05:25;15.00;93.20
4673;DHT22;61885;53.560;9.940;2023-07-02T03:07:55;15.00;93.50
4673;DHT22;61885;53.560;9.940;2023-07-02T03:10:25;15.10;93.20
4673;DHT22;61885;53.560;9.940;2023-07-02T03:12:55;15.00;92.90
4673;DHT22;61885;53.560;9.940;2023-07-02T03:15:24;15.00;93.10
4673;DHT22;61885;53.560;9.940;2023-07-02T03:17:54;15.00;93.00
4673;DHT22;61885;53.560;9.940;2023-07-02T03:20:26;15.10;93.10
4673;DHT22;61885;53.560;9.940;2023-07-02T03:22:56;15.00;93.00
4673;DHT22;61885;53.560;9.940;2023-07-02T03:25:25;15.10;93.20
4673;DHT22;61885;53.560;9.940;2023-07-02T03:27:55;15.10;92.70
4673;DHT22;61885;53.560;9.940;2023-07-02T03:30:24;14.90;92.70
4673;DHT22;61885;53.560;9.940;2023-07-02T03:32:54;15.00;92.60
4673;DHT22;61885;53.560;9.940;2023-07-02T03:35:26;15.00;92.30
4673;DHT22;61885;53.560;9.940;2023-07-02T03:37:56;15.00;92.40
4673;DHT22;61885;53.560;9.940;2023-07-02T03:40:26;15.00;92.10
4673;DHT22;61885;53.560;9.940;2023-07-02T03:42:55;15.00;91.80
4673;DHT22;61885;53.560;9.940;2023-07-02T03:45:27;15.00;91.60
4673;DHT22;61885;53.560;9.940;2023-07-02T03:47:58;15.10;91.60
4673;DHT22;61885;53.560;9.940;2023-07-02T03:50:30;15.00;91.40
4673;DHT22;61885;53.560;9.940;2023-07-02T03:53:00;15.10;91.10
4673;DHT22;61885;53.560;9.940;2023-07-02T03:55:31;15.00;91.00
4673;DHT22;61885;53.560;9.940;2023-07-02T03:58:01;15.10;90.70
4673;DHT22;61885;53.560;9.940;2023-07-02T04:00:30;15.00;90.40
4673;DHT22;61885;53.560;9.940;2023-07-02T04:03:00;15.00;90.60
4673;DHT22;61885;53.560;9.940;2023-07-02T04:05:32;15.10;90.30
4673;DHT22;61885;53.560;9.940;2023-07-02T04:08:02;15.10;90.50
4673;DHT22;61885;53.560;9.940;2023-07-02T04:10:32;15.10;90.30
4673;DHT22;61885;53.560;9.940;2023-07-02T04:13:02;15.10;90.20
4673;DHT22;61885;53.560;9.940;2023-07-02T04:15:31;15.10;90.10
4673;DHT22;61885;53.560;9.940;2023-07-02T04:18:01;15.10;89.90
4673;DHT22;61885;53.560;9.940;2023-07-02T04:20:33;15.10;89.90
4673;DHT22;61885;53.560;9.940;2023-07-02T04:23:05;15.00;89.90
4673;DHT22;61885;53.560;9.940;2023-07-02T04:25:34;15.10;89.80
4673;DHT22;61885;53.560;9.940;2023-07-02T04:28:04;15.10;89.80
4673;DHT22;61885;53.560;9.940;2023-07-02T04:30:33;15.10;89.40
4673;DHT22;61885;53.560;9.940;2023-07-02T04:33:03;15.20;89.40
4673;DHT22;61885;53.560;9.940;2023-07-02T04:35:39;15.20;89.60
4673;DHT22;61885;53.560;9.940;2023-07-02T04:38:09;15.10;89.50
4673;DHT22;61885;53.560;9.940;2023-07-02T04:40:38;15.20;89.20
4673;DHT22;61885;53.560;9.940;2023-07-02T04:43:12;15.20;88.60
4673;DHT22;61885;53.560;9.940;2023-07-02T04:45:45;15.20;88.40
4673;DHT22;61885;53.560;9.940;2023-07-02T04:48:14;15.20;88.30
4673;DHT22;61885;53.560;9.940;2023-07-02T04:50:47;15.20;88.30
4673;DHT22;61885;53.560;9.940;2023-07-02T04:53:17;15.20;88.00
4673;DHT22;61885;53.560;9.940;2023-07-02T04:55:46;15.20;87.90
4673;DHT22;61885;53.560;9.940;2023-07-02T04:58:16;15.20;87.90
4673;DHT22;61885;53.560;9.940;2023-07-02T05:00:46;15.30;87.60
4673;DHT22;61885;53.560;9.940;2023-07-02T05:03:15;15.40;87.90
4673;DHT22;61885;53.560;9.940;2023-07-02T05:05:47;15.40;86.80
4673;DHT22;61885;53.560;9.940;2023-07-02T05:08:17;15.50;86.50
4673;DHT22;61885;53.560;9.940;2023-07-02T05:10:47;15.30;86.90
4673;DHT22;61885;53.560;9.940;2023-07-02T05:13:16;15.40;87.10
4673;DHT22;61885;53.560;9.940;2023-07-02T05:15:46;15.40;86.90
4673;DHT22;61885;53.560;9.940;2023-07-02T05:18:16;15.40;86.10
4673;DHT22;61885;53.560;9.940;2023-07-02T05:20:48;15.40;86.60
4673;DHT22;61885;53.560;9.940;2023-07-02T05:23:18;15.40;86.20
4673;DHT22;61885;53.560;9.940;2023-07-02T05:25:47;15.40;86.40
4673;DHT22;61885;53.560;9.940;2023-07-02T05:28:17;15.60;85.60
4673;DHT22;61885;53.560;9.940;2023-07-02T05:30:47;15.60;85.30
4673;DHT22;61885;53.560;9.940;2023-07-02T05:33:16;15.60;85.20
4673;DHT22;61885;53.560;9.940;2023-07-02T05:35:49;15.50;85.20
4673;DHT22;61885;53.560;9.940;2023-07-02T05:38:18;15.50;85.00
4673;DHT22;61885;53.560;9.940;2023-07-02T05:40:48;15.60;85.00
4673;DHT22;61885;53.560;9.940;2023-07-02T05:43:17;15.60;84.80
4673;DHT22;61885;53.560;9.940;2023-07-02T05:45:47;15.70;84.80
4673;DHT22;61885;53.560;9.940;2023-07-02T05:48:16;15.80;84.90
4673;DHT22;61885;53.560;9.940;2023-07-02T05:50:48;15.80;84.20
4673;DHT22;61885;53.560;9.940;2023-07-02T05:53:18;15.80;84.40
4673;DHT22;61885;53.560;9.940;2023-07-02T05:55:47;15.80;83.80
4673;DHT22;61885;53.560;9.940;2023-07-02T05:58:17;15.70;84.20
4673;DHT22;61885;53.560;9.940;2023-07-02T06:00:46;15.90;83.90
4673;DHT22;61885;53.560;9.940;2023-07-02T06:03:17;16.00;83.80
4673;DHT22;61885;53.560;9.940;2023-07-02T06:05:50;15.90;83.40
4673;DHT22;61885;53.560;9.940;2023-07-02T06:08:19;15.90;83.20
4673;DHT22;61885;53.560;9.940;2023-07-02T06:10:50;15.90;83.30
4673;DHT22;61885;53.560;9.940;2023-07-02T06:13:20;16.10;84.10
4673;DHT22;61885;53.560;9.940;2023-07-02T06:15:49;16.40;83.00
4673;DHT22;61885;53.560;9.940;2023-07-02T06:18:19;16.40;82.40
4673;DHT22;61885;53.560;9.940;2023-07-02T06:20:51;16.20;82.60
4673;DHT22;61885;53.560;9.940;2023-07-02T06:23:21;16.30;82.70
4673;DHT22;61885;53.560;9.940;2023-07-02T06:25:50;16.30;82.70
4673;DHT22;61885;53.560;9.940;2023-07-02T06:28:25;16.60;82.40
4673;DHT22;61885;53.560;9.940;2023-07-02T06:30:55;16.80;81.70
4673;DHT22;61885;53.560;9.940;2023-07-02T06:33:24;16.80;81.00
4673;DHT22;61885;53.560;9.940;2023-07-02T06:35:56;16.80;80.80
4673;DHT22;61885;53.560;9.940;2023-07-02T06:38:26;16.60;81.40
4673;DHT22;61885;53.560;9.940;2023-07-02T06:40:59;16.50;81.40
4673;DHT22;61885;53.560;9.940;2023-07-02T06:43:29;16.70;81.40
4673;DHT22;61885;53.560;9.940;2023-07-02T06:45:59;16.70;80.90
4673;DHT22;61885;53.560;9.940;2023-07-02T06:48:28;16.70;80.20
4673;DHT22;61885;53.560;9.940;2023-07-02T06:51:00;16.90;79.70
4673;DHT22;61885;53.560;9.940;2023-07-02T06:53:30;16.80;79.80
4673;DHT22;61885;53.560;9.940;2023-07-02T06:55:59;17.10;79.80
4673;DHT22;61885;53.560;9.940;2023-07-02T06:58:30;17.20;79.30
4673;DHT22;61885;53.560;9.940;2023-07-02T07:00:59;17.10;78.80
4673;DHT22;61885;53.560;9.940;2023-07-02T07:03:29;17.20;78.70
4673;DHT22;61885;53.560;9.940;2023-07-02T07:06:01;17.40;78.40
4673;DHT22;61885;53.560;9.940;2023-07-02T07:08:31;17.40;77.80
4673;DHT22;61885;53.560;9.940;2023-07-02T07:11:00;17.60;77.10
4673;DHT22;61885;53.560;9.940;2023-07-02T07:13:29;17.60;76.30
4673;DHT22;61885;53.560;9.940;2023-07-02T07:15:59;17.60;77.10
4673;DHT22;61885;53.560;9.940;2023-07-02T07:18:29;17.60;76.60
4673;DHT22;61885;53.560;9.940;2023-07-02T07:21:01;17.50;76.60
4673;DHT22;61885;53.560;9.940;2023-07-02T07:23:31;17.50;76.10
4673;DHT22;61885;53.560;9.940;2023-07-02T07:26:00;17.30;77.30
4673;DHT22;61885;53.560;9.940;2023-07-02T07:28:29;17.10;77.50
4673;DHT22;61885;53.560;9.940;2023-07-02T07:31:00;17.10;78.10
4673;DHT22;61885;53.560;9.940;2023-07-02T07:33:30;17.30;77.60
4673;DHT22;61885;53.560;9.940;2023-07-02T07:36:02;17.10;76.60
4673;DHT22;61885;53.560;9.940;2023-07-02T07:38:34;17.10;75.40
4673;DHT22;61885;53.560;9.940;2023-07-02T07:41:04;17.10;73.60
4673;DHT22;61885;53.560;9.940;2023-07-02T07:43:34;17.20;74.50
4673;DHT22;61885;53.560;9.940;2023-07-02T07:46:04;17.40;73.50
4673;DHT22;61885;53.560;9.940;2023-07-02T07:48:33;17.30;73.20
4673;DHT22;61885;53.560;9.940;2023-07-02T07:51:06;17.30;72.90
4673;DHT22;61885;53.560;9.940;2023-07-02T07:53:38;17.20;72.70
4673;DHT22;61885;53.560;9.940;2023-07-02T07:56:07;17.20;73.10
4673;DHT22;61885;53.560;9.940;2023-07-02T07:58:37;17.40;73.00
4673;DHT22;61885;53.560;9.940;2023-07-02T08:01:06;17.50;73.00
4673;DHT22;61885;53.560;9.940;2023-07-02T08:03:37;17.70;72.80
4673;DHT22;61885;53.560;9.940;2023-07-02T08:06:11;17.80;70.60
4673;DHT22;61885;53.560;9.940;2023-07-02T08:08:40;17.80;70.70
4673;DHT22;61885;53.560;9.940;2023-07-02T08:11:10;17.70;69.80
4673;DHT22;61885;53.560;9.940;2023-07-02T08:13:39;18.00;68.00
4673;DHT22;61885;53.560;9.940;2023-07-02T08:16:10;18.30;66.60
4673;DHT22;61885;53.560;9.940;2023-07-02T08:18:42;18.10;66.00
4673;DHT22;61885;53.560;9.940;2023-07-02T08:21:14;18.10;66.20
4673;DHT22;61885;53.560;9.940;2023-07-02T08:23:44;18.20;66.90
4673;DHT22;61885;53.560;9.940;2023-07-02T08:26:15;18.20;65.10
4673;DHT22;61885;53.560;9.940;2023-07-02T08:28:45;18.10;65.50
4673;DHT22;61885;53.560;9.940;2023-07-02T08:31:14;18.10;65.40
4673;DHT22;61885;53.560;9.940;2023-07-02T08:33:46;18.10;65.40
4673;DHT22;61885;53.560;9.940;2023-07-02T08:36:19;18.20;63.00
4673;DHT22;61885;53.560;9.940;2023-07-02T08:38:49;18.50;63.00
4673;DHT22;61885;53.560;9.940;2023-07-02T08:41:20;18.40;62.20
4673;DHT22;61885;53.560;9.940;2023-07-02T08:43:54;18.40;62.40
4673;DHT22;61885;53.560;9.940;2023-07-02T08:46:24;18.50;62.40
4673;DHT22;61885;53.560;9.940;2023-07-02T08:48:53;18.70;61.30
4673;DHT22;61885;53.560;9.940;2023-07-02T08:51:25;18.80;60.00
4673;DHT22;61885;53.560;9.940;2023-07-02T08:53:56;18.70;60.00
4673;DHT22;61885;53.560;9.940;2023-07-02T08:56:26;18.70;60.20
4673;DHT22;61885;53.560;9.940;2023-07-02T08:58:56;18.60;59.30
4673;DHT22;61885;53.560;9.940;2023-07-02T09:01:26;18.50;59.60
4673;DHT22;61885;53.560;9.940;2023-07-02T09:03:58;18.70;60.30
4673;DHT22;61885;53.560;9.940;2023-07-02T09:06:31;18.80;60.70
4673;DHT22;61885;53.560;9.940;2023-07-02T09:09:05;18.90;60.70
4673;DHT22;61885;53.560;9.940;2023-07-02T09:11:46;18.80;60.60
4673;DHT22;61885;53.560;9.940;2023-07-02T09:14:28;18.60;61.00
4673;DHT22;61885;53.560;9.940;2023-07-02T09:17:02;18.30;62.10
4673;DHT22;61885;53.560;9.940;2023-07-02T09:19:33;18.20;62.50
4673;DHT22;61885;53.560;9.940;2023-07-02T09:22:05;18.10;64.40
4673;DHT22;61885;53.560;9.940;2023-07-02T09:24:35;17.90;68.20
4673;DHT22;61885;53.560;9.940;2023-07-02T09:27:06;17.20;70.00
4673;DHT22;61885;53.560;9.940;2023-07-02T09:29:35;17.00;71.40
4673;DHT22;61885;53.560;9.940;2023-07-02T09:32:06;16.80;75.80
4673;DHT22;61885;53.560;9.940;2023-07-02T09:34:38;16.30;77.70
4673;DHT22;61885;53.560;9.940;2023-07-02T09:37:11;16.30;78.20
4673;DHT22;61885;53.560;9.940;2023-07-02T09:39:41;16.40;76.80
4673;DHT22;61885;53.560;9.940;2023-07-02T09:42:11;16.60;77.00
4673;DHT22;61885;53.560;9.940;2023-07-02T09:44:41;17.00;75.90
4673;DHT22;61885;53.560;9.940;2023-07-02T09:47:12;17.20;72.20
4673;DHT22;61885;53.560;9.940;2023-07-02T09:49:53;17.40;67.90
4673;DHT22;61885;53.560;9.940;2023-07-02T09:52:26;17.60;67.60
4673;DHT22;61885;53.560;9.940;2023-07-02T09:54:56;17.80;66.70
4673;DHT22;61885;53.560;9.940;2023-07-02T09:57:26;18.30;65.20
4673;DHT22;61885;53.560;9.940;2023-07-02T09:59:59;18.50;63.30
4673;DHT22;61885;53.560;9.940;2023-07-02T10:02:29;18.50;63.00
4673;DHT22;61885;53.560;9.940;2023-07-02T10:04:58;18.40;64.10
4673;DHT22;61885;53.560;9.940;2023-07-02T10:07:32;18.60;63.20
4673;DHT22;61885;53.560;9.940;2023-07-02T10:10:06;18.70;63.10
4673;DHT22;61885;53.560;9.940;2023-07-02T10:12:46;19.00;62.00
4673;DHT22;61885;53.560;9.940;2023-07-02T10:15:24;19.00;62.50
4673;DHT22;61885;53.560;9.940;2023-07-02T10:17:55;18.90;62.20
4673;DHT22;61885;53.560;9.940;2023-07-02T10:20:34;18.80;62.70
4673;DHT22;61885;53.560;9.940;2023-07-02T10:23:08;19.20;63.20
4673;DHT22;61885;53.560;9.940;2023-07-02T10:25:38;19.10;62.30
4673;DHT22;61885;53.560;9.940;2023-07-02T10:28:16;19.00;61.90
4673;DHT22;61885;53.560;9.940;2023-07-02T10:30:49;18.80;61.40
4673;DHT22;61885;53.560;9.940;2023-07-02T10:33:22;18.70;63.30
4673;DHT22;61885;53.560;9.940;2023-07-02T10:35:52;18.80;64.10
4673;DHT22;61885;53.560;9.940;2023-07-02T10:38:25;18.80;63.00
4673;DHT22;61885;53.560;9.940;2023-07-02T10:40:55;18.30;63.90
4673;DHT22;61885;53.560;9.940;2023-07-02T10:43:26;17.90;67.30
4673;DHT22;61885;53.560;9.940;2023-07-02T10:45:56;17.50;69.30
4673;DHT22;61885;53.560;9.940;2023-07-02T10:48:26;17.60;69.30
4673;DHT22;61885;53.560;9.940;2023-07-02T10:50:56;17.40;70.80
4673;DHT22;61885;53.560;9.940;2023-07-02T10:53:28;17.50;70.70
4673;DHT22;61885;53.560;9.940;2023-07-02T10:55:58;17.60;71.30
4673;DHT22;61885;53.560;9.940;2023-07-02T10:58:27;17.40;69.50
4673;DHT22;61885;53.560;9.940;2023-07-02T11:00:57;17.30;70.30
4673;DHT22;61885;53.560;9.940;2023-07-02T11:03:27;17.50;69.90
4673;DHT22;61885;53.560;9.940;2023-07-02T11:05:57;17.70;69.50
4673;DHT22;61885;53.560;9.940;2023-07-02T11:08:37;18.00;67.50
4673;DHT22;61885;53.560;9.940;2023-07-02T11:11:07;18.10;65.50
4673;DHT22;61885;53.560;9.940;2023-07-02T11:13:44;18.20;65.00
4673;DHT22;61885;53.560;9.940;2023-07-02T11:16:24;18.60;63.30
4673;DHT22;61885;53.560;9.940;2023-07-02T11:19:07;19.00;63.50
4673;DHT22;61885;53.560;9.940;2023-07-02T11:21:37;19.20;61.30
4673;DHT22;61885;53.560;9.940;2023-07-02T11:24:09;19.10;61.60
4673;DHT22;61885;53.560;9.940;2023-07-02T11:26:39;19.20;60.70
4673;DHT22;61885;53.560;9.940;2023-07-02T11:29:11;19.10;60.90
4673;DHT22;61885;53.560;9.940;2023-07-02T11:31:41;19.40;59.40
4673;DHT22;61885;53.560;9.940;2023-07-02T11:34:13;19.60;58.40
4673;DHT22;61885;53.560;9.940;2023-07-02T11:36:43;19.80;56.80
4673;DHT22;61885;53.560;9.940;2023-07-02T11:39:18;20.10;56.00
4673;DHT22;61885;53.560;9.940;2023-07-02T11:41:48;20.10;56.10
4673;DHT22;61885;53.560;9.940;2023-07-02T11:44:19;20.20;56.00
4673;DHT22;61885;53.560;9.940;2023-07-02T11:46:49;20.30;55.90
4673;DHT22;61885;53.560;9.940;2023-07-02T11:49:18;20.30;57.00
4673;DHT22;61885;53.560;9.940;2023-07-02T11:51:48;20.20;56.80
4673;DHT22;61885;53.560;9.940;2023-07-02T11:54:20;20.30;56.20
4673;DHT22;61885;53.560;9.940;2023-07-02T11:56:49;20.30;55.60
4673;DHT22;61885;53.560;9.940;2023-07-02T11:59:19;20.30;55.20
4673;DHT22;61885;53.560;9.940;2023-07-02T12:01:49;20.00;55.20
4673;DHT22;61885;53.560;9.940;2023-07-02T12:04:20;19.90;56.50
4673;DHT22;61885;53.560;9.940;2023-07-02T12:06:52;19.70;55.50
4673;DHT22;61885;53.560;9.940;2023-07-02T12:09:24;19.50;55.80
4673;DHT22;61885;53.560;9.940;2023-07-02T12:11:54;19.40;57.20
4673;DHT22;61885;53.560;9.940;2023-07-02T12:14:23;20.00;56.20
4673;DHT22;61885;53.560;9.940;2023-07-02T12:16:53;21.00;52.90
4673;DHT22;61885;53.560;9.940;2023-07-02T12:19:22;21.90;51.30
4673;DHT22;61885;53.560;9.940;2023-07-02T12:21:51;22.10;50.20
4673;DHT22;61885;53.560;9.940;2023-07-02T12:24:23;21.60;51.50
4673;DHT22;61885;53.560;9.940;2023-07-02T12:26:53;21.20;52.60
4673;DHT22;61885;53.560;9.940;2023-07-02T12:29:22;21.30;51.70
4673;DHT22;61885;53.560;9.940;2023-07-02T12:31:52;20.80;53.50
4673;DHT22;61885;53.560;9.940;2023-07-02T12:34:21;20.30;54.90
4673;DHT22;61885;53.560;9.940;2023-07-02T12:36:51;20.90;54.50
4673;DHT22;61885;53.560;9.940;2023-07-02T12:39:23;21.80;52.20
4673;DHT22;61885;53.560;9.940;2023-07-02T12:41:53;22.00;51.30
4673;DHT22;61885;53.560;9.940;2023-07-02T12:44:22;21.50;51.20
4673;DHT22;61885;53.560;9.940;2023-07-02T12:46:52;21.40;51.50
4673;DHT22;61885;53.560;9.940;2023-07-02T12:49:21;21.80;50.60
4673;DHT22;61885;53.560;9.940;2023-07-02T12:51:53;22.00;50.10
4673;DHT22;61885;53.560;9.940;2023-07-02T12:54:25;22.00;50.50
4673;DHT22;61885;53.560;9.940;2023-07-02T12:56:54;21.90;49.50
4673;DHT22;61885;53.560;9.940;2023-07-02T12:59:24;22.00;49.20
4673;DHT22;61885;53.560;9.940;2023-07-02T13:01:53;21.50;50.40
4673;DHT22;61885;53.560;9.940;2023-07-02T13:04:37;21.40;51.60
4673;DHT22;61885;53.560;9.940;2023-07-02T13:07:07;20.70;54.40
4673;DHT22;61885;53.560;9.940;2023-07-02T13:09:39;21.60;51.70
4673;DHT22;61885;53.560;9.940;2023-07-02T13:12:10;22.40;50.00
4673;DHT22;61885;53.560;9.940;2023-07-02T13:14:41;22.80;47.20
4673;DHT22;61885;53.560;9.940;2023-07-02T13:17:10;22.70;47.30
4673;DHT22;61885;53.560;9.940;2023-07-02T13:19:40;22.60;47.00
4673;DHT22;61885;53.560;9.940;2023-07-02T13:22:11;22.00;48.30
4673;DHT22;61885;53.560;9.940;2023-07-02T13:24:43;21.20;50.20
4673;DHT22;61885;53.560;9.940;2023-07-02T13:27:14;20.60;52.30
4673;DHT22;61885;53.560;9.940;2023-07-02T13:29:45;21.40;49.50
4673;DHT22;61885;53.560;9.940;2023-07-02T13:32:15;21.40;49.80
4673;DHT22;61885;53.560;9.940;2023-07-02T13:34:44;22.10;48.10
4673;DHT22;61885;53.560;9.940;2023-07-02T13:37:14;22.50;47.90
4673;DHT22;61885;53.560;9.940;2023-07-02T13:39:47;22.30;47.10
4673;DHT22;61885;53.560;9.940;2023-07-02T13:42:19;21.80;48.10
4673;DHT22;61885;53.560;9.940;2023-07-02T13:44:49;20.80;50.70
4673;DHT22;61885;53.560;9.940;2023-07-02T13:47:20;21.00;49.90
4673;DHT22;61885;53.560;9.940;2023-07-02T13:49:49;21.60;49.10
4673;DHT22;61885;53.560;9.940;2023-07-02T13:52:19;21.90;48.20
4673;DHT22;61885;53.560;9.940;2023-07-02T13:54:51;22.30;46.90
4673;DHT22;61885;53.560;9.940;2023-07-02T13:57:20;21.30;48.00
4673;DHT22;61885;53.560;9.940;2023-07-02T13:59:53;20.50;50.00
4673;DHT22;61885;53.560;9.940;2023-07-02T14:02:23;20.40;50.50
4673;DHT22;61885;53.560;9.940;2023-07-02T14:04:53;20.40;51.10
4673;DHT22;61885;53.560;9.940;2023-07-02T14:07:23;21.00;50.10
4673;DHT22;61885;53.560;9.940;2023-07-02T14:09:52;22.20;48.80
4673;DHT22;61885;53.560;9.940;2023-07-02T14:12:22;22.40;48.50
4673;DHT22;61885;53.560;9.940;2023-07-02T14:14:54;22.20;49.40
4673;DHT22;61885;53.560;9.940;2023-07-02T14:17:25;22.10;49.10
4673;DHT22;61885;53.560;9.940;2023-07-02T14:19:57;22.50;48.30
4673;DHT22;61885;53.560;9.940;2023-07-02T14:22:26;23.50;46.00
4673;DHT22;61885;53.560;9.940;2023-07-02T14:24:56;22.60;45.90
4673;DHT22;61885;53.560;9.940;2023-07-02T14:27:28;21.70;47.20
4673;DHT22;61885;53.560;9.940;2023-07-02T14:30:00;21.30;48.10
4673;DHT22;61885;53.560;9.940;2023-07-02T14:32:35;21.60;48.40
4673;DHT22;61885;53.560;9.940;2023-07-02T14:35:10;21.70;47.90
4673;DHT22;61885;53.560;9.940;2023-07-02T14:37:40;22.40;46.10
4673;DHT22;61885;53.560;9.940;2023-07-02T14:40:11;23.20;45.40
4673;DHT22;61885;53.560;9.940;2023-07-02T14:42:40;23.20;45.00
4673;DHT22;61885;53.560;9.940;2023-07-02T14:45:18;23.50;44.70
4673;DHT22;61885;53.560;9.940;2023-07-02T14:47:48;22.20;46.50
4673;DHT22;61885;53.560;9.940;2023-07-02T14:50:17;21.50;48.40
4673;DHT22;61885;53.560;9.940;2023-07-02T14:52:47;21.40;48.50
4673;DHT22;61885;53.560;9.940;2023-07-02T14:55:16;21.00;49.00
4673;DHT22;61885;53.560;9.940;2023-07-02T14:57:46;21.40;48.40
4673;DHT22;61885;53.560;9.940;2023-07-02T15:00:18;21.70;48.20
4673;DHT22;61885;53.560;9.940;2023-07-02T15:02:48;21.80;48.10
4673;DHT22;61885;53.560;9.940;2023-07-02T15:05:17;21.70;48.10
4673;DHT22;61885;53.560;9.940;2023-07-02T15:07:47;21.00;48.90
4673;DHT22;61885;53.560;9.940;2023-07-02T15:10:19;20.50;49.70
4673;DHT22;61885;53.560;9.940;2023-07-02T15:12:48;20.40;51.00
4673;DHT22;61885;53.560;9.940;2023-07-02T15:15:20;20.40;50.00
4673;DHT22;61885;53.560;9.940;2023-07-02T15:17:51;20.40;50.00
4673;DHT22;61885;53.560;9.940;2023-07-02T15:20:21;20.50;50.10
4673;DHT22;61885;53.560;9.940;2023-07-02T15:22:52;20.60;50.10
4673;DHT22;61885;53.560;9.940;2023-07-02T15:25:22;20.70;49.10
4673;DHT22;61885;53.560;9.940;2023-07-02T15:27:52;20.90;48.30
4673;DHT22;61885;53.560;9.940;2023-07-02T15:30:24;21.40;47.90
4673;DHT22;61885;53.560;9.940;2023-07-02T15:32:55;22.70;45.60
4673;DHT22;61885;53.560;9.940;2023-07-02T15:35:24;22.80;45.50
4673;DHT22;61885;53.560;9.940;2023-07-02T15:37:54;23.10;45.00
4673;DHT22;61885;53.560;9.940;2023-07-02T15:40:24;23.30;44.80
4673;DHT22;61885;53.560;9.940;2023-07-02T15:42:53;23.60;45.10
4673;DHT22;61885;53.560;9.940;2023-07-02T15:45:25;24.20;44.10
4673;DHT22;61885;53.560;9.940;2023-07-02T15:47:55;22.70;45.80
4673;DHT22;61885;53.560;9.940;2023-07-02T15:50:25;21.70;47.70
4673;DHT22;61885;53.560;9.940;2023-07-02T15:52:55;22.40;46.80
4673;DHT22;61885;53.560;9.940;2023-07-02T15:55:25;22.60;46.50
4673;DHT22;61885;53.560;9.940;2023-07-02T15:57:54;22.20;47.60
4673;DHT22;61885;53.560;9.940;2023-07-02T16:00:27;21.80;48.80
4673;DHT22;61885;53.560;9.940;2023-07-02T16:02:56;21.70;48.70
4673;DHT22;61885;53.560;9.940;2023-07-02T16:05:27;21.10;48.50
4673;DHT22;61885;53.560;9.940;2023-07-02T16:07:58;22.50;45.60